Погода Межицана неделю

Витебская область, Белоруссия

23 - 29 мая
  • 23мая
    Сегодня
    +12°
    +24°
    Пасмурно, дожди с грозами
    ВремяПогодаТемператураВлажностьДавлениеВетер, м/сВероятность осадков
    00:00Практически безоблачно+15°C94 %752 мм2.5 м/с6 %
    03:00Ясно и безоблачно+14°C94 %752 мм2.7 м/с2 %
    06:00Ясно и безоблачно+14°C95 %752 мм3.5 м/с2 %
    09:00Ясно и безоблачно+19°C81 %753 мм3.6 м/с2 %
    12:00Ясно и безоблачно+22°C61 %754 мм4.6 м/с3 %
    15:00Пасмурно, дожди с грозами+24°C52 %754 мм4.8 м/с23 %
    18:00Облачно с прояснениями+24°C57 %754 мм4.2 м/с39 %
    21:00Небольшая облачность+19°C63 %754 мм3.2 м/с2 %
  • 24мая
    Пятница
    +11°
    +23°
    Ясно и безоблачно
    ВремяПогодаТемператураВлажностьДавлениеВетер, м/сВероятность осадков
    00:00Ясно и безоблачно+16°C58 %756 мм4.5 м/с2 %
    03:00Ясно и безоблачно+14°C61 %756 мм3.8 м/с2 %
    06:00Ясно и безоблачно+12°C66 %757 мм4.0 м/с2 %
    09:00Ясно и безоблачно+17°C59 %758 мм4.0 м/с2 %
    12:00Ясно и безоблачно+21°C49 %758 мм3.9 м/с2 %
    15:00Ясно и безоблачно+23°C44 %757 мм3.9 м/с2 %
    18:00Ясно и безоблачно+22°C46 %757 мм3.9 м/с2 %
    21:00Ясно и безоблачно+18°C60 %756 мм2.9 м/с2 %
  • 25мая
    Суббота
    +12°
    +25°
    Облачно с прояснениями
    ВремяПогодаТемператураВлажностьДавлениеВетер, м/сВероятность осадков
    00:00Ясно и безоблачно+14°C67 %757 мм3.0 м/с2 %
    03:00Небольшая облачность+12°C75 %757 мм2.5 м/с2 %
    06:00Облачно с прояснениями+12°C77 %757 мм3.1 м/с2 %
    09:00Небольшая облачность+17°C64 %756 мм3.0 м/с2 %
    12:00Практически безоблачно+22°C50 %756 мм2.9 м/с2 %
    15:00Облачно с прояснениями+24°C41 %755 мм3.3 м/с4 %
    18:00Облачно с прояснениями+24°C43 %754 мм2.6 м/с10 %
    21:00Облачно с прояснениями+18°C69 %754 мм2.1 м/с4 %
  • 26мая
    Воскресенье
    +10°
    +25°
    Практически безоблачно
    ВремяПогодаТемператураВлажностьДавлениеВетер, м/сВероятность осадков
    00:00Ясно и безоблачно+15°C64 %754 мм2.8 м/с5 %
    03:00Ясно и безоблачно+13°C68 %754 мм2.5 м/с6 %
    06:00Ясно и безоблачно+12°C73 %754 мм2.0 м/с4 %
    09:00Ясно и безоблачно+18°C58 %754 мм1.3 м/с3 %
    12:00Ясно и безоблачно+23°C37 %755 мм2.0 м/с2 %
    15:00Практически безоблачно+24°C36 %754 мм1.2 м/с5 %
    18:00Ясно и безоблачно+25°C37 %754 мм0.7 м/с10 %
    21:00Ясно и безоблачно+18°C69 %754 мм2.5 м/с2 %
Мы используем cookies
Соглашаюсь